sensor_id;sensor_type;location;lat;lon;timestamp;pressure;altitude;pressure_sealevel;temperature;humidity
69257;BME280;56376;53.356;-1.748;2022-09-17T00:01:14;100221.44;;;7.21;70.93
69257;BME280;56376;53.356;-1.748;2022-09-17T00:03:41;100213.66;;;7.21;70.84
69257;BME280;56376;53.356;-1.748;2022-09-17T00:06:09;100218.00;;;7.19;71.10
69257;BME280;56376;53.356;-1.748;2022-09-17T00:08:37;100220.63;;;7.16;70.98
69257;BME280;56376;53.356;-1.748;2022-09-17T00:11:08;100218.94;;;7.13;71.22
69257;BME280;56376;53.356;-1.748;2022-09-17T00:13:33;100206.88;;;7.06;71.33
69257;BME280;56376;53.356;-1.748;2022-09-17T00:15:59;100217.28;;;7.05;71.29
69257;BME280;56376;53.356;-1.748;2022-09-17T00:18:24;100219.06;;;7.00;71.45
69257;BME280;56376;53.356;-1.748;2022-09-17T00:20:50;100214.81;;;6.96;71.52
69257;BME280;56376;53.356;-1.748;2022-09-17T00:23:15;100217.44;;;6.91;71.47
69257;BME280;56376;53.356;-1.748;2022-09-17T00:25:42;100215.75;;;6.88;71.34
69257;BME280;56376;53.356;-1.748;2022-09-17T00:28:08;100202.78;;;6.84;71.63
69257;BME280;56376;53.356;-1.748;2022-09-17T00:30:34;100204.59;;;6.79;71.62
69257;BME280;56376;53.356;-1.748;2022-09-17T00:33:00;100206.34;;;6.75;71.79
69257;BME280;56376;53.356;-1.748;2022-09-17T00:35:26;100201.22;;;6.70;71.76
69257;BME280;56376;53.356;-1.748;2022-09-17T00:37:52;100198.66;;;6.64;71.94
69257;BME280;56376;53.356;-1.748;2022-09-17T00:40:18;100202.19;;;6.57;71.95
69257;BME280;56376;53.356;-1.748;2022-09-17T00:42:44;100213.47;;;6.53;72.16
69257;BME280;56376;53.356;-1.748;2022-09-17T00:45:10;100208.31;;;6.48;72.38
69257;BME280;56376;53.356;-1.748;2022-09-17T00:47:39;100210.91;;;6.48;73.24
69257;BME280;56376;53.356;-1.748;2022-09-17T00:52:46;100209.22;;;6.44;73.24
69257;BME280;56376;53.356;-1.748;2022-09-17T00:57:42;100209.28;;;6.38;73.43
69257;BME280;56376;53.356;-1.748;2022-09-17T01:00:11;100207.56;;;6.34;73.10
69257;BME280;56376;53.356;-1.748;2022-09-17T01:02:38;100198.97;;;6.29;72.91
69257;BME280;56376;53.356;-1.748;2022-09-17T01:05:04;100196.41;;;6.26;73.02
69257;BME280;56376;53.356;-1.748;2022-09-17T01:10:35;100199.06;;;6.18;72.80
69257;BME280;56376;53.356;-1.748;2022-09-17T01:16:55;100196.56;;;6.06;73.29
69257;BME280;56376;53.356;-1.748;2022-09-17T01:22:34;100194.03;;;5.95;73.35
69257;BME280;56376;53.356;-1.748;2022-09-17T01:31:25;100201.00;;;5.85;74.54
69257;BME280;56376;53.356;-1.748;2022-09-17T01:34:29;100204.47;;;5.83;74.36
69257;BME280;56376;53.356;-1.748;2022-09-17T01:43:15;100209.72;;;5.71;73.93
69257;BME280;56376;53.356;-1.748;2022-09-17T01:48:36;100206.31;;;5.62;74.59
69257;BME280;56376;53.356;-1.748;2022-09-17T01:51:13;100213.22;;;5.60;74.67
69257;BME280;56376;53.356;-1.748;2022-09-17T01:53:49;100202.88;;;5.57;74.26
69257;BME280;56376;53.356;-1.748;2022-09-17T01:56:21;100211.53;;;5.53;74.64
69257;BME280;56376;53.356;-1.748;2022-09-17T01:58:57;100210.66;;;5.51;74.92
69257;BME280;56376;53.356;-1.748;2022-09-17T02:01:28;100211.53;;;5.49;75.05
69257;BME280;56376;53.356;-1.748;2022-09-17T02:04:02;100207.25;;;5.46;75.08
69257;BME280;56376;53.356;-1.748;2022-09-17T02:06:36;100209.00;;;5.42;75.09
69257;BME280;56376;53.356;-1.748;2022-09-17T02:09:12;100208.13;;;5.42;74.91
69257;BME280;56376;53.356;-1.748;2022-09-17T02:11:42;100201.25;;;5.38;74.92
69257;BME280;56376;53.356;-1.748;2022-09-17T02:14:23;100202.09;;;5.34;75.29
69257;BME280;56376;53.356;-1.748;2022-09-17T02:16:54;100209.88;;;5.34;75.53
69257;BME280;56376;53.356;-1.748;2022-09-17T02:19:26;100210.75;;;5.34;75.92
69257;BME280;56376;53.356;-1.748;2022-09-17T02:22:13;100214.22;;;5.35;75.84
69257;BME280;56376;53.356;-1.748;2022-09-17T02:27:46;100201.28;;;5.26;75.86
69257;BME280;56376;53.356;-1.748;2022-09-17T02:30:13;100203.00;;;5.24;75.50
69257;BME280;56376;53.356;-1.748;2022-09-17T02:32:38;100204.75;;;5.18;75.32
69257;BME280;56376;53.356;-1.748;2022-09-17T02:35:04;100196.16;;;5.13;75.57
69257;BME280;56376;53.356;-1.748;2022-09-17T02:37:30;100203.94;;;5.12;76.06
69257;BME280;56376;53.356;-1.748;2022-09-17T02:39:56;100201.34;;;5.10;75.79
69257;BME280;56376;53.356;-1.748;2022-09-17T02:45:19;100199.63;;;5.05;76.24
69257;BME280;56376;53.356;-1.748;2022-09-17T03:01:51;100205.72;;;4.88;75.83
69257;BME280;56376;53.356;-1.748;2022-09-17T03:04:21;100202.25;;;4.86;75.86
69257;BME280;56376;53.356;-1.748;2022-09-17T03:06:51;100195.34;;;4.84;75.97
69257;BME280;56376;53.356;-1.748;2022-09-17T03:09:17;100199.72;;;4.82;76.13
69257;BME280;56376;53.356;-1.748;2022-09-17T03:11:42;100199.69;;;4.80;75.56
69257;BME280;56376;53.356;-1.748;2022-09-17T03:14:07;100195.38;;;4.76;75.87
69257;BME280;56376;53.356;-1.748;2022-09-17T03:16:33;100204.91;;;4.74;76.14
69257;BME280;56376;53.356;-1.748;2022-09-17T03:18:58;100203.16;;;4.73;76.25
69257;BME280;56376;53.356;-1.748;2022-09-17T03:21:24;100202.31;;;4.69;76.18
69257;BME280;56376;53.356;-1.748;2022-09-17T03:23:49;100204.03;;;4.66;76.44
69257;BME280;56376;53.356;-1.748;2022-09-17T03:26:14;100205.78;;;4.64;76.52
69257;BME280;56376;53.356;-1.748;2022-09-17T03:28:40;100202.31;;;4.60;76.47
69257;BME280;56376;53.356;-1.748;2022-09-17T03:31:05;100206.63;;;4.58;76.98
69257;BME280;56376;53.356;-1.748;2022-09-17T03:33:31;100194.56;;;4.59;77.13
69257;BME280;56376;53.356;-1.748;2022-09-17T03:35:57;100194.56;;;4.57;77.14
69257;BME280;56376;53.356;-1.748;2022-09-17T03:38:23;100205.75;;;4.56;77.58
69257;BME280;56376;53.356;-1.748;2022-09-17T03:41:02;100202.31;;;4.52;77.49
69257;BME280;56376;53.356;-1.748;2022-09-17T03:43:28;100205.78;;;4.53;77.46
69257;BME280;56376;53.356;-1.748;2022-09-17T03:45:54;100204.06;;;4.49;77.33
69257;BME280;56376;53.356;-1.748;2022-09-17T03:48:20;100211.81;;;4.52;77.09
69257;BME280;56376;53.356;-1.748;2022-09-17T03:50:45;100211.81;;;4.52;77.34
69257;BME280;56376;53.356;-1.748;2022-09-17T03:53:11;100201.47;;;4.49;77.32
69257;BME280;56376;53.356;-1.748;2022-09-17T03:55:39;100203.19;;;4.50;77.33
69257;BME280;56376;53.356;-1.748;2022-09-17T03:58:05;100207.50;;;4.48;77.41
69257;BME280;56376;53.356;-1.748;2022-09-17T04:00:31;100204.91;;;4.45;77.67
69257;BME280;56376;53.356;-1.748;2022-09-17T04:02:56;100207.53;;;4.46;77.26
69257;BME280;56376;53.356;-1.748;2022-09-17T04:05:21;100203.19;;;4.45;77.66
69257;BME280;56376;53.356;-1.748;2022-09-17T04:07:48;100210.97;;;4.44;77.79
69257;BME280;56376;53.356;-1.748;2022-09-17T04:10:13;100211.81;;;4.43;78.00
69257;BME280;56376;53.356;-1.748;2022-09-17T04:12:39;100203.19;;;4.41;77.82
69257;BME280;56376;53.356;-1.748;2022-09-17T04:15:04;100208.38;;;4.39;78.08
69257;BME280;56376;53.356;-1.748;2022-09-17T04:17:30;100201.47;;;4.40;77.93
69257;BME280;56376;53.356;-1.748;2022-09-17T04:19:56;100196.31;;;4.37;78.08
69257;BME280;56376;53.356;-1.748;2022-09-17T04:22:22;100204.91;;;4.36;78.64
69257;BME280;56376;53.356;-1.748;2022-09-17T04:24:47;100202.34;;;4.34;78.94
69257;BME280;56376;53.356;-1.748;2022-09-17T04:27:13;100205.78;;;4.34;78.98
69257;BME280;56376;53.356;-1.748;2022-09-17T04:29:38;100200.59;;;4.33;79.08
69257;BME280;56376;53.356;-1.748;2022-09-17T04:32:04;100196.31;;;4.33;78.87
69257;BME280;56376;53.356;-1.748;2022-09-17T04:34:29;100194.56;;;4.32;79.17
69257;BME280;56376;53.356;-1.748;2022-09-17T04:36:56;100194.59;;;4.31;79.09
69257;BME280;56376;53.356;-1.748;2022-09-17T04:39:21;100195.44;;;4.30;79.46
69257;BME280;56376;53.356;-1.748;2022-09-17T04:41:47;100190.25;;;4.30;79.56
69257;BME280;56376;53.356;-1.748;2022-09-17T04:44:12;100196.31;;;4.32;79.91
69257;BME280;56376;53.356;-1.748;2022-09-17T04:46:37;100195.44;;;4.30;79.74
69257;BME280;56376;53.356;-1.748;2022-09-17T04:49:03;100196.31;;;4.33;79.90
69257;BME280;56376;53.356;-1.748;2022-09-17T04:51:28;100201.47;;;4.35;80.40
69257;BME280;56376;53.356;-1.748;2022-09-17T04:53:53;100200.63;;;4.36;80.45
69257;BME280;56376;53.356;-1.748;2022-09-17T04:56:19;100207.50;;;4.37;80.74
69257;BME280;56376;53.356;-1.748;2022-09-17T04:58:44;100203.19;;;4.38;80.52
69257;BME280;56376;53.356;-1.748;2022-09-17T05:01:10;100192.84;;;4.38;80.75
69257;BME280;56376;53.356;-1.748;2022-09-17T05:03:37;100198.91;;;4.37;81.00
69257;BME280;56376;53.356;-1.748;2022-09-17T05:06:03;100205.81;;;4.36;81.12
69257;BME280;56376;53.356;-1.748;2022-09-17T05:08:29;100198.91;;;4.37;81.14
69257;BME280;56376;53.356;-1.748;2022-09-17T05:10:54;100191.13;;;4.37;81.66
69257;BME280;56376;53.356;-1.748;2022-09-17T05:13:20;100188.53;;;4.38;81.90
69257;BME280;56376;53.356;-1.748;2022-09-17T05:15:46;100191.13;;;4.37;81.62
69257;BME280;56376;53.356;-1.748;2022-09-17T05:18:11;100186.81;;;4.34;81.88
69257;BME280;56376;53.356;-1.748;2022-09-17T05:20:37;100191.13;;;4.37;82.25
69257;BME280;56376;53.356;-1.748;2022-09-17T05:23:03;100191.13;;;4.38;82.32
69257;BME280;56376;53.356;-1.748;2022-09-17T05:25:28;100185.94;;;4.40;82.23
69257;BME280;56376;53.356;-1.748;2022-09-17T05:27:55;100188.53;;;4.38;82.13
69257;BME280;56376;53.356;-1.748;2022-09-17T05:30:20;100179.91;;;4.38;82.08
69257;BME280;56376;53.356;-1.748;2022-09-17T05:32:46;100190.28;;;4.39;82.58
69257;BME280;56376;53.356;-1.748;2022-09-17T05:35:12;100190.25;;;4.41;82.22
69257;BME280;56376;53.356;-1.748;2022-09-17T05:37:37;100191.97;;;4.40;82.72
69257;BME280;56376;53.356;-1.748;2022-09-17T05:40:04;100190.25;;;4.38;82.76
69257;BME280;56376;53.356;-1.748;2022-09-17T05:42:31;100191.13;;;4.38;82.92
69257;BME280;56376;53.356;-1.748;2022-09-17T05:44:56;100187.69;;;4.38;82.82
69257;BME280;56376;53.356;-1.748;2022-09-17T05:47:22;100185.09;;;4.38;82.44
69257;BME280;56376;53.356;-1.748;2022-09-17T05:49:47;100189.41;;;4.39;82.54
69257;BME280;56376;53.356;-1.748;2022-09-17T05:52:13;100189.41;;;4.36;82.61
69257;BME280;56376;53.356;-1.748;2022-09-17T05:54:38;100189.41;;;4.36;82.66
69257;BME280;56376;53.356;-1.748;2022-09-17T05:57:04;100191.16;;;4.33;83.07
69257;BME280;56376;53.356;-1.748;2022-09-17T05:59:30;100192.84;;;4.30;82.87
69257;BME280;56376;53.356;-1.748;2022-09-17T06:01:55;100192.88;;;4.31;83.04
69257;BME280;56376;53.356;-1.748;2022-09-17T06:04:21;100192.88;;;4.28;83.30
69257;BME280;56376;53.356;-1.748;2022-09-17T06:06:46;100196.31;;;4.27;83.30
69257;BME280;56376;53.356;-1.748;2022-09-17T06:09:12;100186.84;;;4.26;83.39
69257;BME280;56376;53.356;-1.748;2022-09-17T06:11:38;100190.28;;;4.27;83.64
69257;BME280;56376;53.356;-1.748;2022-09-17T06:14:03;100202.34;;;4.25;83.57
69257;BME280;56376;53.356;-1.748;2022-09-17T06:16:29;100203.19;;;4.25;83.99
69257;BME280;56376;53.356;-1.748;2022-09-17T06:18:54;100198.03;;;4.22;84.13
69257;BME280;56376;53.356;-1.748;2022-09-17T06:21:21;100192.84;;;4.25;84.19
69257;BME280;56376;53.356;-1.748;2022-09-17T06:23:47;100200.63;;;4.28;84.49
69257;BME280;56376;53.356;-1.748;2022-09-17T06:26:13;100210.97;;;4.30;84.17
69257;BME280;56376;53.356;-1.748;2022-09-17T06:28:38;100204.06;;;4.32;84.97
69257;BME280;56376;53.356;-1.748;2022-09-17T06:31:06;100207.53;;;4.34;84.67
69257;BME280;56376;53.356;-1.748;2022-09-17T06:33:32;100198.03;;;4.34;85.10
69257;BME280;56376;53.356;-1.748;2022-09-17T06:36:02;100198.88;;;4.40;84.86
69257;BME280;56376;53.356;-1.748;2022-09-17T06:38:31;100204.91;;;4.48;84.95
69257;BME280;56376;53.356;-1.748;2022-09-17T06:40:57;100198.00;;;4.53;85.42
69257;BME280;56376;53.356;-1.748;2022-09-17T06:43:23;100209.22;;;4.58;85.41
69257;BME280;56376;53.356;-1.748;2022-09-17T06:46:02;100207.50;;;4.62;85.60
69257;BME280;56376;53.356;-1.748;2022-09-17T06:48:29;100210.06;;;4.69;85.78
69257;BME280;56376;53.356;-1.748;2022-09-17T06:51:02;100216.97;;;4.76;86.15
69257;BME280;56376;53.356;-1.748;2022-09-17T06:53:28;100224.72;;;4.84;86.15
69257;BME280;56376;53.356;-1.748;2022-09-17T06:55:55;100210.03;;;4.94;86.66
69257;BME280;56376;53.356;-1.748;2022-09-17T06:58:21;100222.09;;;5.04;86.59
69257;BME280;56376;53.356;-1.748;2022-09-17T07:00:46;100216.03;;;5.14;86.96
69257;BME280;56376;53.356;-1.748;2022-09-17T07:03:12;100218.56;;;5.25;86.84
69257;BME280;56376;53.356;-1.748;2022-09-17T07:05:37;100220.25;;;5.37;86.84
69257;BME280;56376;53.356;-1.748;2022-09-17T07:08:03;100214.16;;;5.47;87.26
69257;BME280;56376;53.356;-1.748;2022-09-17T07:10:29;100222.75;;;5.60;86.93
69257;BME280;56376;53.356;-1.748;2022-09-17T07:12:55;100220.94;;;5.73;86.58
69257;BME280;56376;53.356;-1.748;2022-09-17T07:15:20;100219.09;;;5.92;85.37
69257;BME280;56376;53.356;-1.748;2022-09-17T07:17:46;100214.63;;;6.17;81.75
69257;BME280;56376;53.356;-1.748;2022-09-17T07:20:12;100210.09;;;6.42;81.23
69257;BME280;56376;53.356;-1.748;2022-09-17T07:22:37;100210.75;;;6.68;80.61
69257;BME280;56376;53.356;-1.748;2022-09-17T07:25:03;100215.66;;;6.94;78.69
69257;BME280;56376;53.356;-1.748;2022-09-17T07:27:30;100215.41;;;7.19;76.86
69257;BME280;56376;53.356;-1.748;2022-09-17T07:29:56;100210.81;;;7.40;75.56
69257;BME280;56376;53.356;-1.748;2022-09-17T07:32:22;100206.25;;;7.58;73.21
69257;BME280;56376;53.356;-1.748;2022-09-17T07:34:47;100209.50;;;7.74;72.52
69257;BME280;56376;53.356;-1.748;2022-09-17T07:37:14;100206.69;;;7.91;71.45
69257;BME280;56376;53.356;-1.748;2022-09-17T07:39:40;100203.88;;;8.03;70.29
69257;BME280;56376;53.356;-1.748;2022-09-17T07:42:06;100208.81;;;8.20;69.39
69257;BME280;56376;53.356;-1.748;2022-09-17T07:44:32;100205.94;;;8.37;69.42
69257;BME280;56376;53.356;-1.748;2022-09-17T07:46:57;100198.81;;;8.50;67.74
69257;BME280;56376;53.356;-1.748;2022-09-17T07:49:23;100192.50;;;8.65;67.24
69257;BME280;56376;53.356;-1.748;2022-09-17T07:51:48;100192.28;;;8.76;67.67
69257;BME280;56376;53.356;-1.748;2022-09-17T07:54:13;100187.69;;;8.90;67.70
69257;BME280;56376;53.356;-1.748;2022-09-17T07:56:39;100177.03;;;9.02;66.78
69257;BME280;56376;53.356;-1.748;2022-09-17T07:59:04;100179.28;;;9.21;66.70
69257;BME280;56376;53.356;-1.748;2022-09-17T08:01:33;100175.41;;;9.39;65.50
69257;BME280;56376;53.356;-1.748;2022-09-17T08:03:59;100168.84;;;9.61;63.69
69257;BME280;56376;53.356;-1.748;2022-09-17T08:06:26;100168.56;;;9.73;63.73
69257;BME280;56376;53.356;-1.748;2022-09-17T08:08:53;100169.91;;;9.91;61.33
69257;BME280;56376;53.356;-1.748;2022-09-17T08:11:24;100168.72;;;10.05;60.18
69257;BME280;56376;53.356;-1.748;2022-09-17T08:13:51;100165.09;;;10.10;62.08
69257;BME280;56376;53.356;-1.748;2022-09-17T08:16:18;100165.69;;;10.23;62.71
69257;BME280;56376;53.356;-1.748;2022-09-17T08:18:44;100158.44;;;10.34;61.84
69257;BME280;56376;53.356;-1.748;2022-09-17T08:21:12;100159.78;;;10.51;60.83
69257;BME280;56376;53.356;-1.748;2022-09-17T08:23:39;100170.72;;;10.65;59.80
69257;BME280;56376;53.356;-1.748;2022-09-17T08:26:06;100167.88;;;10.74;58.30
69257;BME280;56376;53.356;-1.748;2022-09-17T08:28:34;100164.75;;;10.93;57.52
69257;BME280;56376;53.356;-1.748;2022-09-17T08:31:07;100169.66;;;11.03;54.60
69257;BME280;56376;53.356;-1.748;2022-09-17T08:33:37;100179.06;;;11.11;54.85
69257;BME280;56376;53.356;-1.748;2022-09-17T08:36:04;100178.06;;;11.16;53.94
69257;BME280;56376;53.356;-1.748;2022-09-17T08:38:31;100174.41;;;11.22;55.72
69257;BME280;56376;53.356;-1.748;2022-09-17T08:41:11;100178.59;;;11.27;55.47
69257;BME280;56376;53.356;-1.748;2022-09-17T08:46:33;100182.00;;;11.30;53.27
69257;BME280;56376;53.356;-1.748;2022-09-17T08:49:23;100184.53;;;11.33;54.94
69257;BME280;56376;53.356;-1.748;2022-09-17T08:54:25;100201.13;;;11.61;54.43
69257;BME280;56376;53.356;-1.748;2022-09-17T08:59:43;100202.19;;;11.84;53.83
69257;BME280;56376;53.356;-1.748;2022-09-17T09:02:33;100203.00;;;11.87;53.42
69257;BME280;56376;53.356;-1.748;2022-09-17T09:05:02;100201.25;;;11.88;51.64
69257;BME280;56376;53.356;-1.748;2022-09-17T09:07:37;100198.72;;;11.83;52.76
69257;BME280;56376;53.356;-1.748;2022-09-17T09:12:44;100199.31;;;11.63;52.42
69257;BME280;56376;53.356;-1.748;2022-09-17T09:15:36;100202.00;;;11.62;53.73
69257;BME280;56376;53.356;-1.748;2022-09-17T09:18:14;100199.88;;;11.75;54.21
69257;BME280;56376;53.356;-1.748;2022-09-17T09:20:51;100184.53;;;11.92;54.16
69257;BME280;56376;53.356;-1.748;2022-09-17T09:26:14;100211.09;;;12.08;53.15
69257;BME280;56376;53.356;-1.748;2022-09-17T09:29:03;100200.47;;;12.12;52.54
69257;BME280;56376;53.356;-1.748;2022-09-17T09:34:33;100202.28;;;12.37;51.46
69257;BME280;56376;53.356;-1.748;2022-09-17T09:37:18;100203.78;;;12.44;51.54
69257;BME280;56376;53.356;-1.748;2022-09-17T09:39:47;100208.44;;;12.63;52.49
69257;BME280;56376;53.356;-1.748;2022-09-17T09:44:49;100205.00;;;12.86;50.43
69257;BME280;56376;53.356;-1.748;2022-09-17T09:47:34;100205.88;;;12.86;50.67
69257;BME280;56376;53.356;-1.748;2022-09-17T09:53:04;100203.38;;;13.07;50.07
69257;BME280;56376;53.356;-1.748;2022-09-17T09:58:37;100212.78;;;12.89;51.50
69257;BME280;56376;53.356;-1.748;2022-09-17T10:01:13;100192.25;;;12.75;50.55
69257;BME280;56376;53.356;-1.748;2022-09-17T10:03:41;100200.38;;;12.67;51.28
69257;BME280;56376;53.356;-1.748;2022-09-17T10:06:08;100200.34;;;12.69;51.30
69257;BME280;56376;53.356;-1.748;2022-09-17T10:11:21;100208.44;;;12.63;52.79
69257;BME280;56376;53.356;-1.748;2022-09-17T10:13:47;100200.56;;;12.63;52.74
69257;BME280;56376;53.356;-1.748;2022-09-17T10:16:18;100199.59;;;12.65;52.71
69257;BME280;56376;53.356;-1.748;2022-09-17T10:18:45;100194.38;;;12.65;51.64
69257;BME280;56376;53.356;-1.748;2022-09-17T10:21:42;100197.06;;;12.62;51.22
69257;BME280;56376;53.356;-1.748;2022-09-17T10:24:23;100202.38;;;12.61;52.42
69257;BME280;56376;53.356;-1.748;2022-09-17T10:26:49;100197.72;;;12.69;50.25
69257;BME280;56376;53.356;-1.748;2022-09-17T10:29:18;100194.41;;;12.64;51.36
69257;BME280;56376;53.356;-1.748;2022-09-17T10:31:53;100193.56;;;12.63;52.61
69257;BME280;56376;53.356;-1.748;2022-09-17T10:36:46;100195.09;;;12.69;53.63
69257;BME280;56376;53.356;-1.748;2022-09-17T10:44:22;100192.75;;;12.86;50.66
69257;BME280;56376;53.356;-1.748;2022-09-17T10:46:50;100185.75;;;12.87;50.78
69257;BME280;56376;53.356;-1.748;2022-09-17T10:51:41;100191.63;;;12.93;50.85
69257;BME280;56376;53.356;-1.748;2022-09-17T10:54:41;100195.69;;;13.02;51.16
69257;BME280;56376;53.356;-1.748;2022-09-17T10:57:11;100195.75;;;13.01;50.17
69257;BME280;56376;53.356;-1.748;2022-09-17T11:00:04;100194.34;;;13.15;49.60
69257;BME280;56376;53.356;-1.748;2022-09-17T11:02:53;100197.13;;;13.11;49.20
69257;BME280;56376;53.356;-1.748;2022-09-17T11:05:37;100188.47;;;13.09;49.27
69257;BME280;56376;53.356;-1.748;2022-09-17T11:11:07;100186.53;;;13.14;50.73
69257;BME280;56376;53.356;-1.748;2022-09-17T11:13:47;100187.34;;;13.16;51.55
69257;BME280;56376;53.356;-1.748;2022-09-17T11:25:13;100184.19;;;13.31;50.28
69257;BME280;56376;53.356;-1.748;2022-09-17T11:30:22;100176.16;;;13.58;50.85
69257;BME280;56376;53.356;-1.748;2022-09-17T11:35:55;100172.59;;;13.82;49.81
69257;BME280;56376;53.356;-1.748;2022-09-17T11:38:40;100160.78;;;13.93;49.43
69257;BME280;56376;53.356;-1.748;2022-09-17T11:41:15;100163.88;;;14.04;49.07
69257;BME280;56376;53.356;-1.748;2022-09-17T11:43:50;100157.06;;;14.20;49.36
69257;BME280;56376;53.356;-1.748;2022-09-17T11:46:28;100165.75;;;14.43;49.26
69257;BME280;56376;53.356;-1.748;2022-09-17T11:49:38;100170.47;;;14.57;47.38
69257;BME280;56376;53.356;-1.748;2022-09-17T11:51:47;100162.13;;;14.67;48.68
69257;BME280;56376;53.356;-1.748;2022-09-17T11:54:31;100164.41;;;14.75;47.47
69257;BME280;56376;53.356;-1.748;2022-09-17T11:59:52;100150.47;;;14.73;47.35
69257;BME280;56376;53.356;-1.748;2022-09-17T12:05:08;100156.00;;;14.67;48.25
69257;BME280;56376;53.356;-1.748;2022-09-17T12:13:02;100147.50;;;14.81;48.27
69257;BME280;56376;53.356;-1.748;2022-09-17T12:15:34;100145.97;;;14.77;47.87
69257;BME280;56376;53.356;-1.748;2022-09-17T12:18:20;100144.31;;;14.74;49.12
69257;BME280;56376;53.356;-1.748;2022-09-17T12:20:50;100147.44;;;14.82;48.67
69257;BME280;56376;53.356;-1.748;2022-09-17T12:23:33;100143.97;;;14.82;49.50
69257;BME280;56376;53.356;-1.748;2022-09-17T12:26:31;100145.34;;;14.90;48.03
69257;BME280;56376;53.356;-1.748;2022-09-17T12:37:25;100138.59;;;15.04;48.87
69257;BME280;56376;53.356;-1.748;2022-09-17T12:43:01;100141.44;;;15.37;44.69
69257;BME280;56376;53.356;-1.748;2022-09-17T12:57:30;100123.97;;;15.74;45.47
69257;BME280;56376;53.356;-1.748;2022-09-17T13:00:10;100137.47;;;15.85;45.49
69257;BME280;56376;53.356;-1.748;2022-09-17T13:02:44;100133.06;;;15.86;45.33
69257;BME280;56376;53.356;-1.748;2022-09-17T13:11:03;100124.47;;;15.99;43.87
69257;BME280;56376;53.356;-1.748;2022-09-17T13:16:24;100125.44;;;16.16;45.12
69257;BME280;56376;53.356;-1.748;2022-09-17T13:21:39;100119.69;;;16.42;44.49
69257;BME280;56376;53.356;-1.748;2022-09-17T13:24:14;100126.97;;;16.55;43.58
69257;BME280;56376;53.356;-1.748;2022-09-17T13:26:41;100127.59;;;16.60;42.13
69257;BME280;56376;53.356;-1.748;2022-09-17T13:29:06;100124.94;;;16.60;43.00
69257;BME280;56376;53.356;-1.748;2022-09-17T13:34:02;100134.69;;;16.75;44.14
69257;BME280;56376;53.356;-1.748;2022-09-17T13:36:51;100126.41;;;16.83;43.37
69257;BME280;56376;53.356;-1.748;2022-09-17T13:39:40;100132.94;;;16.76;43.18
69257;BME280;56376;53.356;-1.748;2022-09-17T13:44:49;100132.69;;;16.63;43.52
69257;BME280;56376;53.356;-1.748;2022-09-17T13:47:23;100130.38;;;16.57;43.09
69257;BME280;56376;53.356;-1.748;2022-09-17T13:49:56;100129.59;;;16.55;43.31
69257;BME280;56376;53.356;-1.748;2022-09-17T13:52:38;100126.50;;;16.64;44.43
69257;BME280;56376;53.356;-1.748;2022-09-17T13:55:06;100133.47;;;16.65;44.22
69257;BME280;56376;53.356;-1.748;2022-09-17T13:57:33;100131.78;;;16.64;43.55
69257;BME280;56376;53.356;-1.748;2022-09-17T14:21:30;100111.84;;;17.25;42.94
69257;BME280;56376;53.356;-1.748;2022-09-17T14:24:16;100106.16;;;17.17;44.23
69257;BME280;56376;53.356;-1.748;2022-09-17T14:32:12;100117.59;;;17.00;43.60
69257;BME280;56376;53.356;-1.748;2022-09-17T14:34:40;100109.63;;;17.01;42.93
69257;BME280;56376;53.356;-1.748;2022-09-17T14:37:10;100101.47;;;17.06;43.41
69257;BME280;56376;53.356;-1.748;2022-09-17T14:39:38;100104.53;;;17.14;43.32
69257;BME280;56376;53.356;-1.748;2022-09-17T14:42:09;100116.78;;;17.15;42.64
69257;BME280;56376;53.356;-1.748;2022-09-17T14:44:35;100114.72;;;17.04;42.99
69257;BME280;56376;53.356;-1.748;2022-09-17T14:47:12;100119.97;;;16.89;43.05
69257;BME280;56376;53.356;-1.748;2022-09-17T14:49:39;100112.53;;;16.79;43.94
69257;BME280;56376;53.356;-1.748;2022-09-17T14:52:26;100112.06;;;16.71;43.60
69257;BME280;56376;53.356;-1.748;2022-09-17T14:55:23;100109.56;;;16.68;43.69
69257;BME280;56376;53.356;-1.748;2022-09-17T14:57:55;100112.47;;;16.63;43.51
69257;BME280;56376;53.356;-1.748;2022-09-17T15:00:23;100113.88;;;16.53;43.31
69257;BME280;56376;53.356;-1.748;2022-09-17T15:02:51;100126.06;;;16.38;44.13
69257;BME280;56376;53.356;-1.748;2022-09-17T15:05:26;100111.63;;;16.28;44.39
69257;BME280;56376;53.356;-1.748;2022-09-17T15:08:09;100103.19;;;16.21;45.47
69257;BME280;56376;53.356;-1.748;2022-09-17T15:13:16;100120.00;;;16.19;46.43
69257;BME280;56376;53.356;-1.748;2022-09-17T15:18:42;100109.38;;;16.03;45.89
69257;BME280;56376;53.356;-1.748;2022-09-17T15:23:45;100112.53;;;15.92;46.93
69257;BME280;56376;53.356;-1.748;2022-09-17T15:26:12;100111.47;;;15.96;46.48
69257;BME280;56376;53.356;-1.748;2022-09-17T15:28:42;100105.78;;;15.87;47.46
69257;BME280;56376;53.356;-1.748;2022-09-17T15:31:16;100105.47;;;15.75;48.46
69257;BME280;56376;53.356;-1.748;2022-09-17T15:33:43;100111.63;;;15.74;49.33
69257;BME280;56376;53.356;-1.748;2022-09-17T15:36:17;100109.88;;;15.75;48.94
69257;BME280;56376;53.356;-1.748;2022-09-17T15:38:44;100103.28;;;15.65;47.90
69257;BME280;56376;53.356;-1.748;2022-09-17T15:41:35;100111.16;;;15.47;49.06
69257;BME280;56376;53.356;-1.748;2022-09-17T15:44:22;100106.59;;;15.32;50.05
69257;BME280;56376;53.356;-1.748;2022-09-17T15:46:48;100106.91;;;15.26;50.77
69257;BME280;56376;53.356;-1.748;2022-09-17T15:49:33;100120.56;;;15.15;50.81
69257;BME280;56376;53.356;-1.748;2022-09-17T15:52:28;100099.06;;;15.05;49.78
69257;BME280;56376;53.356;-1.748;2022-09-17T15:54:57;100107.13;;;15.02;49.36
69257;BME280;56376;53.356;-1.748;2022-09-17T15:57:24;100100.28;;;14.98;49.20
69257;BME280;56376;53.356;-1.748;2022-09-17T15:59:51;100109.75;;;15.02;48.48
69257;BME280;56376;53.356;-1.748;2022-09-17T16:02:28;100105.31;;;15.03;48.27
69257;BME280;56376;53.356;-1.748;2022-09-17T16:07:41;100109.84;;;14.80;49.89
69257;BME280;56376;53.356;-1.748;2022-09-17T16:10:09;100117.78;;;14.79;50.78
69257;BME280;56376;53.356;-1.748;2022-09-17T16:12:35;100111.88;;;14.74;51.02
69257;BME280;56376;53.356;-1.748;2022-09-17T16:15:01;100109.34;;;14.72;51.78